createdAt,value
2022-08-26T00:00:27.529Z,37.01
2022-08-26T00:01:44.123Z,36.99
2022-08-26T00:02:52.408Z,37.02
2022-08-26T00:04:00.459Z,37.03
2022-08-26T00:05:07.774Z,37.28
2022-08-26T00:06:16.222Z,37.20
2022-08-26T00:07:29.292Z,37.25
2022-08-26T00:08:36.828Z,37.08
2022-08-26T00:09:47.828Z,36.91
2022-08-26T00:10:57.791Z,36.71
2022-08-26T00:12:08.007Z,36.58
2022-08-26T00:13:19.495Z,36.62
2022-08-26T00:14:31.007Z,36.68
2022-08-26T00:15:40.475Z,36.50
2022-08-26T00:16:48.997Z,36.39
2022-08-26T00:17:56.619Z,36.23
2022-08-26T00:19:04.129Z,36.16
2022-08-26T00:20:12.430Z,36.15
2022-08-26T00:21:22.241Z,36.35
2022-08-26T00:22:32.572Z,36.31
2022-08-26T00:23:40.800Z,36.24
2022-08-26T00:24:49.492Z,36.12
2022-08-26T00:25:57.506Z,36.17
2022-08-26T00:27:06.293Z,36.24
2022-08-26T00:28:14.377Z,36.11
2022-08-26T00:29:27.569Z,36.16
2022-08-26T00:30:38.108Z,36.04
2022-08-26T00:31:46.290Z,35.81
2022-08-26T00:32:54.225Z,35.90
2022-08-26T00:34:01.915Z,35.85
2022-08-26T00:35:11.877Z,35.88
2022-08-26T00:36:20.293Z,35.98
2022-08-26T00:37:29.604Z,36.03
2022-08-26T00:38:38.415Z,35.94
2022-08-26T00:39:47.899Z,36.00
2022-08-26T00:40:57.108Z,35.94
2022-08-26T00:42:04.326Z,35.72
2022-08-26T00:43:12.029Z,35.58
2022-08-26T00:44:21.438Z,35.55
2022-08-26T00:45:30.601Z,35.50
2022-08-26T00:46:44.974Z,35.40
2022-08-26T00:47:58.299Z,35.26
2022-08-26T00:49:42.396Z,35.32
2022-08-26T00:51:00.137Z,35.18
2022-08-26T00:52:12.067Z,35.09
2022-08-26T00:53:27.819Z,35.00
2022-08-26T00:54:37.393Z,34.85
2022-08-26T00:55:45.499Z,34.57
2022-08-26T00:57:01.493Z,34.49
2022-08-26T00:58:09.270Z,34.43
2022-08-26T00:59:17.743Z,34.25
2022-08-26T01:00:29.162Z,34.11
2022-08-26T01:01:39.385Z,34.09
2022-08-26T01:02:47.567Z,34.22
2022-08-26T01:03:55.136Z,34.33
2022-08-26T01:05:04.185Z,34.21
2022-08-26T01:06:14.313Z,34.23
2022-08-26T01:07:23.539Z,34.21
2022-08-26T01:08:32.316Z,34.16
2022-08-26T01:09:40.413Z,34.22
2022-08-26T01:10:48.714Z,34.16
2022-08-26T01:11:59.130Z,34.18
2022-08-26T01:13:08.403Z,34.19
2022-08-26T01:14:17.219Z,34.16
2022-08-26T01:15:33.437Z,34.09
2022-08-26T01:16:42.307Z,34.00
2022-08-26T01:17:52.576Z,33.96
2022-08-26T01:19:04.867Z,33.99
2022-08-26T01:20:51.978Z,33.98
2022-08-26T01:22:09.276Z,33.96
2022-08-26T01:23:17.715Z,33.85
2022-08-26T01:24:30.998Z,33.96
2022-08-26T01:25:44.942Z,33.88
2022-08-26T01:26:52.691Z,33.87
2022-08-26T01:27:59.629Z,33.84
2022-08-26T01:29:07.285Z,33.93
2022-08-26T01:30:16.264Z,33.82
2022-08-26T01:31:27.052Z,33.75
2022-08-26T01:32:35.316Z,33.66
2022-08-26T01:33:58.796Z,33.57
2022-08-26T01:35:07.829Z,33.42
2022-08-26T01:36:17.197Z,33.41
2022-08-26T01:37:29.278Z,33.32
2022-08-26T01:38:37.209Z,33.34
2022-08-26T01:39:45.208Z,33.33
2022-08-26T01:40:52.735Z,33.21
2022-08-26T01:42:03.216Z,33.09
2022-08-26T01:43:10.555Z,33.05
2022-08-26T01:44:19.839Z,32.83
2022-08-26T01:45:29.888Z,32.72
2022-08-26T01:46:37.590Z,32.62
2022-08-26T01:47:45.531Z,32.53
2022-08-26T01:48:54.524Z,32.44
2022-08-26T01:50:03.168Z,32.30
2022-08-26T01:51:11.251Z,32.20
2022-08-26T01:52:28.090Z,32.05
2022-08-26T01:53:37.276Z,31.89
2022-08-26T01:54:46.358Z,31.77
2022-08-26T01:56:01.103Z,31.67
2022-08-26T01:57:10.317Z,31.58
2022-08-26T01:58:29.096Z,31.46
2022-08-26T01:59:37.929Z,31.41
2022-08-26T02:00:46.368Z,31.35
2022-08-26T02:01:54.508Z,31.24
2022-08-26T02:03:23.527Z,31.15
2022-08-26T02:04:44.994Z,31.04
2022-08-26T02:05:58.685Z,30.87
2022-08-26T02:07:08.409Z,30.67
2022-08-26T02:08:16.868Z,30.50
2022-08-26T02:09:33.677Z,30.33
2022-08-26T02:10:49.238Z,30.15
2022-08-26T02:12:03.358Z,29.98
2022-08-26T02:13:11.779Z,29.86
2022-08-26T02:14:30.721Z,29.75
2022-08-26T02:15:39.158Z,29.60
2022-08-26T02:16:48.739Z,29.49
2022-08-26T02:17:57.747Z,29.37
2022-08-26T02:19:06.479Z,29.26
2022-08-26T02:20:21.268Z,29.15
2022-08-26T02:21:29.947Z,29.07
2022-08-26T02:22:38.915Z,28.97
2022-08-26T02:23:49.831Z,28.88
2022-08-26T02:25:00.237Z,28.79
2022-08-26T02:26:19.203Z,28.72
2022-08-26T02:27:34.119Z,28.63
2022-08-26T02:28:55.439Z,28.56
2022-08-26T02:30:14.107Z,28.49
2022-08-26T02:31:28.362Z,28.41
2022-08-26T02:32:36.503Z,28.35
2022-08-26T02:33:44.184Z,28.29
2022-08-26T02:34:51.558Z,28.25
2022-08-26T02:35:59.350Z,28.21
2022-08-26T02:37:09.899Z,28.16
2022-08-26T02:38:18.535Z,28.14
2022-08-26T02:39:27.961Z,28.10
2022-08-26T02:40:37.758Z,28.06
2022-08-26T02:41:47.022Z,28.01
2022-08-26T02:42:57.104Z,27.96
2022-08-26T02:44:04.621Z,27.92
2022-08-26T02:45:12.866Z,27.89
2022-08-26T02:46:26.771Z,27.86
2022-08-26T02:47:40.116Z,27.83
2022-08-26T02:48:48.345Z,27.81
2022-08-26T02:49:56.593Z,27.78
2022-08-26T02:51:04.439Z,27.74
2022-08-26T02:52:13.085Z,27.72
2022-08-26T02:53:25.197Z,27.70
2022-08-26T02:54:34.846Z,27.67
2022-08-26T02:55:43.442Z,27.64
2022-08-26T02:56:51.981Z,27.61
2022-08-26T02:57:59.669Z,27.59
2022-08-26T02:59:07.188Z,27.56
2022-08-26T03:00:17.277Z,27.53
2022-08-26T03:01:31.588Z,27.49
2022-08-26T03:02:39.329Z,27.47
2022-08-26T03:03:47.550Z,27.44
2022-08-26T03:05:01.791Z,27.41
2022-08-26T03:06:10.556Z,27.39
2022-08-26T03:07:18.389Z,27.37
2022-08-26T03:08:27.059Z,27.34
2022-08-26T03:09:36.031Z,27.31
2022-08-26T03:10:44.407Z,27.28
2022-08-26T03:11:53.516Z,27.25
2022-08-26T03:13:05.130Z,27.22
2022-08-26T03:14:14.981Z,27.19
2022-08-26T03:15:25.046Z,27.16
2022-08-26T03:16:37.209Z,27.12
2022-08-26T03:17:46.143Z,27.10
2022-08-26T03:18:54.016Z,27.08
2022-08-26T03:20:01.775Z,27.06
2022-08-26T03:21:14.405Z,27.03
2022-08-26T03:22:23.015Z,27.00
2022-08-26T03:23:33.727Z,26.99
2022-08-26T03:24:46.057Z,26.96
2022-08-26T03:25:54.776Z,26.93
2022-08-26T03:27:05.944Z,26.90
2022-08-26T03:28:16.214Z,26.88
2022-08-26T03:29:49.529Z,26.85
2022-08-26T03:30:59.560Z,26.81
2022-08-26T03:32:07.713Z,26.78
2022-08-26T03:33:16.195Z,26.74
2022-08-26T03:34:24.623Z,26.72
2022-08-26T03:35:35.610Z,26.69
2022-08-26T03:36:43.799Z,26.66
2022-08-26T03:37:52.637Z,26.63
2022-08-26T03:39:00.395Z,26.60
2022-08-26T03:40:09.653Z,26.58
2022-08-26T03:41:17.388Z,26.57
2022-08-26T03:42:25.143Z,26.54
2022-08-26T03:43:33.049Z,26.51
2022-08-26T03:44:42.464Z,26.49
2022-08-26T03:45:51.333Z,26.47
2022-08-26T03:47:00.268Z,26.44
2022-08-26T03:48:07.942Z,26.43
2022-08-26T03:49:15.973Z,26.42
2022-08-26T03:50:25.226Z,26.40
2022-08-26T03:51:34.962Z,26.37
2022-08-26T03:52:48.434Z,26.36
2022-08-26T03:53:57.127Z,26.33
2022-08-26T03:55:05.669Z,26.30
2022-08-26T03:56:13.377Z,26.28
2022-08-26T03:57:22.757Z,26.25
2022-08-26T03:58:31.218Z,26.22
2022-08-26T03:59:41.273Z,26.18
2022-08-26T04:00:49.616Z,26.14
2022-08-26T04:02:03.425Z,26.10
2022-08-26T04:03:37.824Z,26.07
2022-08-26T04:04:46.609Z,26.04
2022-08-26T04:05:54.799Z,26.01
2022-08-26T04:07:02.804Z,25.97
2022-08-26T04:08:10.154Z,25.95
2022-08-26T04:09:22.738Z,25.93
2022-08-26T04:10:35.065Z,25.91
2022-08-26T04:11:44.236Z,25.89
2022-08-26T04:12:53.352Z,25.88
2022-08-26T04:14:01.996Z,25.86
2022-08-26T04:15:10.741Z,25.85
2022-08-26T04:16:19.249Z,25.82
2022-08-26T04:17:27.939Z,25.79
2022-08-26T04:18:40.559Z,25.78
2022-08-26T04:19:57.541Z,25.76
2022-08-26T04:21:04.694Z,25.73
2022-08-26T04:22:15.150Z,25.70
2022-08-26T04:23:32.293Z,25.67
2022-08-26T04:24:55.497Z,25.64
2022-08-26T04:26:03.358Z,25.62
2022-08-26T04:27:12.768Z,25.61
2022-08-26T04:28:20.908Z,25.59
2022-08-26T04:29:29.685Z,25.57
2022-08-26T04:30:41.247Z,25.54
2022-08-26T04:31:51.702Z,25.53
2022-08-26T04:33:13.348Z,25.50
2022-08-26T04:34:21.786Z,25.47
2022-08-26T04:35:29.908Z,25.44
2022-08-26T04:36:37.379Z,25.41
2022-08-26T04:37:45.975Z,25.39
2022-08-26T04:38:54.147Z,25.36
2022-08-26T04:40:01.752Z,25.33
2022-08-26T04:41:15.418Z,25.30
2022-08-26T04:42:26.048Z,25.26
2022-08-26T04:43:35.303Z,25.25
2022-08-26T04:44:43.285Z,25.25
2022-08-26T04:45:51.600Z,25.24
2022-08-26T04:47:00.389Z,25.22
2022-08-26T04:48:07.975Z,25.22
2022-08-26T04:49:19.574Z,25.21
2022-08-26T04:50:28.668Z,25.20
2022-08-26T04:51:40.686Z,25.17
2022-08-26T04:52:48.817Z,25.14
2022-08-26T04:54:04.795Z,25.11
2022-08-26T04:55:12.681Z,25.07
2022-08-26T04:56:22.232Z,25.04
2022-08-26T04:57:30.462Z,25.00
2022-08-26T04:58:40.340Z,24.97
2022-08-26T04:59:50.039Z,24.94
2022-08-26T05:00:58.105Z,24.90
2022-08-26T05:02:05.798Z,24.87
2022-08-26T05:03:14.002Z,24.84
2022-08-26T05:04:22.990Z,24.82
2022-08-26T05:05:33.653Z,24.80
2022-08-26T05:06:43.576Z,24.78
2022-08-26T05:07:52.205Z,24.75
2022-08-26T05:09:01.379Z,24.70
2022-08-26T05:10:10.733Z,24.66
2022-08-26T05:11:19.270Z,24.61
2022-08-26T05:12:34.472Z,24.52
2022-08-26T05:13:43.576Z,24.43
2022-08-26T05:14:51.945Z,24.36
2022-08-26T05:16:01.265Z,24.33
2022-08-26T05:17:08.938Z,24.27
2022-08-26T05:18:18.142Z,24.24
2022-08-26T05:19:28.231Z,24.19
2022-08-26T05:20:40.820Z,24.13
2022-08-26T05:21:50.354Z,24.06
2022-08-26T05:22:58.599Z,23.99
2022-08-26T05:24:06.903Z,23.93
2022-08-26T05:25:14.386Z,23.87
2022-08-26T05:26:23.021Z,23.81
2022-08-26T05:27:31.178Z,23.75
2022-08-26T05:28:40.448Z,23.69
2022-08-26T05:29:47.978Z,23.63
2022-08-26T05:31:02.245Z,23.58
2022-08-26T05:32:09.850Z,23.56
2022-08-26T05:33:19.790Z,23.55
2022-08-26T05:34:30.282Z,23.54
2022-08-26T05:35:39.820Z,23.54
2022-08-26T05:36:48.081Z,23.55
2022-08-26T05:37:56.181Z,23.57
2022-08-26T05:39:04.041Z,23.59
2022-08-26T05:40:12.585Z,23.60
2022-08-26T05:41:26.406Z,23.62
2022-08-26T05:42:35.380Z,23.62
2022-08-26T05:43:43.415Z,23.61
2022-08-26T05:44:56.056Z,23.62
2022-08-26T05:46:08.399Z,23.61
2022-08-26T05:47:15.960Z,23.61
2022-08-26T05:48:25.618Z,23.61
2022-08-26T05:49:33.741Z,23.60
2022-08-26T05:50:46.395Z,23.58
2022-08-26T05:51:54.939Z,23.57
2022-08-26T05:53:02.894Z,23.54
2022-08-26T05:54:12.180Z,23.53
2022-08-26T05:55:20.718Z,23.51
2022-08-26T05:56:30.749Z,23.50
2022-08-26T05:57:40.555Z,23.49
2022-08-26T05:58:51.906Z,23.47
2022-08-26T05:59:59.509Z,23.45
2022-08-26T06:01:09.701Z,23.43
2022-08-26T06:02:17.714Z,23.41
2022-08-26T06:03:27.838Z,23.40
2022-08-26T06:04:35.066Z,23.37
2022-08-26T06:05:43.763Z,23.36
2022-08-26T06:06:52.580Z,23.34
2022-08-26T06:08:20.849Z,23.31
2022-08-26T06:09:29.649Z,23.28
2022-08-26T06:10:59.555Z,23.27
2022-08-26T06:12:07.037Z,23.26
2022-08-26T06:13:14.998Z,23.26
2022-08-26T06:14:24.787Z,23.25
2022-08-26T06:15:34.828Z,23.24
2022-08-26T06:16:47.017Z,23.23
2022-08-26T06:17:54.941Z,23.23
2022-08-26T06:19:10.831Z,23.20
2022-08-26T06:20:20.688Z,23.18
2022-08-26T06:21:34.699Z,23.16
2022-08-26T06:23:00.420Z,23.14
2022-08-26T06:24:30.705Z,23.12
2022-08-26T06:25:40.563Z,23.12
2022-08-26T06:26:55.862Z,23.09
2022-08-26T06:28:03.700Z,23.07
2022-08-26T06:29:11.501Z,23.05
2022-08-26T06:30:25.266Z,23.03
2022-08-26T06:31:34.639Z,23.00
2022-08-26T06:32:42.037Z,22.97
2022-08-26T06:33:50.248Z,22.94
2022-08-26T06:34:57.932Z,22.91
2022-08-26T06:36:05.186Z,22.89
2022-08-26T06:37:12.278Z,22.86
2022-08-26T06:38:20.880Z,22.84
2022-08-26T06:39:30.868Z,22.82
2022-08-26T06:40:47.461Z,22.80
2022-08-26T06:41:57.740Z,22.77
2022-08-26T06:43:05.355Z,22.74
2022-08-26T06:44:13.159Z,22.71
2022-08-26T06:45:21.687Z,22.67
2022-08-26T06:46:30.530Z,22.63
2022-08-26T06:47:39.274Z,22.59
2022-08-26T06:48:47.774Z,22.57
2022-08-26T06:49:55.938Z,22.55
2022-08-26T06:51:11.857Z,22.54
2022-08-26T06:52:24.420Z,22.53
2022-08-26T06:53:34.171Z,22.52
2022-08-26T06:54:44.749Z,22.49
2022-08-26T06:55:52.732Z,22.48
2022-08-26T06:57:00.566Z,22.47
2022-08-26T06:58:07.721Z,22.45
2022-08-26T06:59:14.975Z,22.45
2022-08-26T07:00:23.187Z,22.44
2022-08-26T07:01:36.802Z,22.42
2022-08-26T07:02:47.033Z,22.40
2022-08-26T07:03:57.854Z,22.39
2022-08-26T07:05:06.290Z,22.37
2022-08-26T07:06:14.788Z,22.36
2022-08-26T07:07:24.570Z,22.35
2022-08-26T07:08:31.969Z,22.33
2022-08-26T07:09:41.799Z,22.31
2022-08-26T07:10:49.759Z,22.30
2022-08-26T07:12:01.055Z,22.30
2022-08-26T07:13:08.708Z,22.29
2022-08-26T07:14:15.947Z,22.28
2022-08-26T07:15:23.901Z,22.26
2022-08-26T07:16:40.778Z,22.24
2022-08-26T07:17:48.319Z,22.22
2022-08-26T07:18:57.372Z,22.21
2022-08-26T07:20:07.591Z,22.20
2022-08-26T07:21:18.288Z,22.19
2022-08-26T07:22:27.939Z,22.17
2022-08-26T07:23:37.336Z,22.15
2022-08-26T07:24:49.317Z,22.15
2022-08-26T07:25:56.691Z,22.14
2022-08-26T07:27:08.942Z,22.12
2022-08-26T07:28:15.938Z,22.11
2022-08-26T07:29:24.460Z,22.09
2022-08-26T07:30:33.004Z,22.08
2022-08-26T07:31:42.874Z,22.06
2022-08-26T07:32:51.387Z,22.05
2022-08-26T07:33:58.997Z,22.03
2022-08-26T07:35:08.167Z,22.01
2022-08-26T07:36:16.087Z,22.00
2022-08-26T07:37:24.037Z,21.97
2022-08-26T07:38:30.998Z,21.96
2022-08-26T07:39:43.260Z,21.94
2022-08-26T07:40:50.996Z,21.92
2022-08-26T07:41:58.497Z,21.91
2022-08-26T07:43:07.681Z,21.88
2022-08-26T07:44:17.006Z,21.86
2022-08-26T07:45:25.370Z,21.84
2022-08-26T07:46:34.459Z,21.82
2022-08-26T07:47:43.622Z,21.81
2022-08-26T07:48:52.212Z,21.82
2022-08-26T07:50:00.341Z,21.81
2022-08-26T07:51:08.149Z,21.80
2022-08-26T07:52:16.204Z,21.77
2022-08-26T07:53:24.635Z,21.76
2022-08-26T07:54:34.124Z,21.73
2022-08-26T07:55:42.594Z,21.70
2022-08-26T07:56:51.182Z,21.67
2022-08-26T07:58:00.557Z,21.64
2022-08-26T07:59:13.333Z,21.63
2022-08-26T08:00:22.611Z,21.61
2022-08-26T08:01:35.623Z,21.58
2022-08-26T08:02:47.873Z,21.54
2022-08-26T08:03:58.618Z,21.51
2022-08-26T08:05:06.860Z,21.49
2022-08-26T08:06:15.884Z,21.47
2022-08-26T08:07:25.823Z,21.45
2022-08-26T08:08:53.292Z,21.42
2022-08-26T08:10:01.222Z,21.39
2022-08-26T08:11:10.539Z,21.37
2022-08-26T08:12:19.739Z,21.36
2022-08-26T08:13:28.524Z,21.35
2022-08-26T08:14:39.204Z,21.37
2022-08-26T08:15:47.003Z,21.40
2022-08-26T08:16:57.872Z,21.41
2022-08-26T08:18:05.872Z,21.41
2022-08-26T08:19:24.369Z,21.41
2022-08-26T08:20:47.676Z,21.42
2022-08-26T08:22:17.968Z,21.43
2022-08-26T08:23:29.166Z,21.43
2022-08-26T08:24:38.589Z,21.44
2022-08-26T08:25:47.086Z,21.44
2022-08-26T08:26:56.138Z,21.45
2022-08-26T08:28:03.878Z,21.45
2022-08-26T08:29:12.637Z,21.44
2022-08-26T08:30:22.829Z,21.42
2022-08-26T08:32:59.322Z,21.40
2022-08-26T08:34:07.024Z,21.38
2022-08-26T08:35:16.608Z,21.35
2022-08-26T08:36:24.534Z,21.32
2022-08-26T08:37:32.411Z,21.28
2022-08-26T08:38:40.261Z,21.24
2022-08-26T08:39:53.453Z,21.19
2022-08-26T08:41:05.645Z,21.15
2022-08-26T08:42:37.020Z,21.13
2022-08-26T08:43:44.182Z,21.10
2022-08-26T08:44:52.660Z,21.08
2022-08-26T08:46:14.477Z,21.07
2022-08-26T08:47:35.225Z,21.07
2022-08-26T08:48:45.269Z,21.06
2022-08-26T08:49:52.487Z,21.07
2022-08-26T08:51:01.600Z,21.08
2022-08-26T08:52:30.299Z,21.09
2022-08-26T08:53:43.156Z,21.08
2022-08-26T08:54:50.560Z,21.09
2022-08-26T08:56:09.528Z,21.09
2022-08-26T08:57:44.440Z,21.10
2022-08-26T08:58:56.883Z,21.10
2022-08-26T09:00:13.165Z,21.11
2022-08-26T09:01:52.338Z,21.11
2022-08-26T09:03:07.998Z,21.11
2022-08-26T09:04:53.169Z,21.11
2022-08-26T09:06:00.515Z,21.09
2022-08-26T09:07:12.688Z,21.09
2022-08-26T09:08:30.037Z,21.09
2022-08-26T09:09:43.896Z,21.08
2022-08-26T09:10:57.504Z,21.06
2022-08-26T09:12:06.172Z,21.04
2022-08-26T09:13:16.952Z,21.06
2022-08-26T09:14:34.464Z,21.04
2022-08-26T09:15:57.889Z,21.02
2022-08-26T09:17:31.630Z,21.00
2022-08-26T09:18:53.850Z,20.95
2022-08-26T09:20:35.500Z,20.91
2022-08-26T09:21:44.343Z,20.86
2022-08-26T09:22:52.649Z,20.82
2022-08-26T09:23:59.961Z,20.77
2022-08-26T09:25:11.225Z,20.73
2022-08-26T09:26:43.894Z,20.70
2022-08-26T09:27:53.321Z,20.68
2022-08-26T09:29:05.484Z,20.65
2022-08-26T09:30:24.878Z,20.64
2022-08-26T09:31:37.786Z,20.64
2022-08-26T09:32:55.998Z,20.64
2022-08-26T09:34:07.935Z,20.63
2022-08-26T09:35:43.162Z,20.60
2022-08-26T09:36:57.386Z,20.57
2022-08-26T09:38:04.860Z,20.56
2022-08-26T09:39:28.167Z,20.54
2022-08-26T09:40:36.404Z,20.51
2022-08-26T09:41:43.813Z,20.48
2022-08-26T09:43:11.450Z,20.45
2022-08-26T09:44:21.976Z,20.42
2022-08-26T09:45:31.985Z,20.40
2022-08-26T09:46:41.575Z,20.39
2022-08-26T09:47:50.303Z,20.38
2022-08-26T09:48:57.962Z,20.38
2022-08-26T09:50:12.393Z,20.38
2022-08-26T09:51:25.972Z,20.39
2022-08-26T09:52:35.059Z,20.39
2022-08-26T09:54:03.059Z,20.40
2022-08-26T09:55:14.378Z,20.39
2022-08-26T09:56:29.039Z,20.38
2022-08-26T09:57:39.011Z,20.38
2022-08-26T09:58:48.473Z,20.38
2022-08-26T09:59:55.983Z,20.38
2022-08-26T10:01:05.461Z,20.38
2022-08-26T10:02:31.495Z,20.38
2022-08-26T10:03:39.893Z,20.36
2022-08-26T10:04:56.141Z,20.35
2022-08-26T10:06:24.705Z,20.33
2022-08-26T10:07:44.401Z,20.34
2022-08-26T10:08:56.196Z,20.35
2022-08-26T10:10:05.262Z,20.33
2022-08-26T10:11:53.868Z,20.34
2022-08-26T10:13:05.979Z,20.32
2022-08-26T10:14:28.932Z,20.32
2022-08-26T10:16:05.985Z,20.32
2022-08-26T10:17:41.764Z,20.33
2022-08-26T10:18:59.911Z,20.34
2022-08-26T10:20:23.197Z,20.34
2022-08-26T10:21:48.456Z,20.32
2022-08-26T10:23:06.938Z,20.31
2022-08-26T10:24:14.362Z,20.31
2022-08-26T10:25:27.367Z,20.30
2022-08-26T10:26:43.682Z,20.30
2022-08-26T10:28:11.087Z,20.28
2022-08-26T10:29:23.560Z,20.27
2022-08-26T10:30:42.907Z,20.27
2022-08-26T10:31:58.750Z,20.29
2022-08-26T10:33:11.737Z,20.29
2022-08-26T10:34:21.105Z,20.29
2022-08-26T10:35:30.118Z,20.30
2022-08-26T10:37:15.216Z,20.30
2022-08-26T10:38:24.118Z,20.29
2022-08-26T10:39:39.648Z,20.28
2022-08-26T10:41:01.357Z,20.28
2022-08-26T10:42:18.349Z,20.27
2022-08-26T10:43:50.782Z,20.24
2022-08-26T10:44:58.859Z,20.23
2022-08-26T10:46:07.380Z,20.21
2022-08-26T10:47:26.978Z,20.18
2022-08-26T10:48:40.635Z,20.17
2022-08-26T10:49:49.497Z,20.16
2022-08-26T10:50:57.333Z,20.16
2022-08-26T10:52:23.660Z,20.16
2022-08-26T10:53:51.608Z,20.15
2022-08-26T10:55:05.133Z,20.11
2022-08-26T10:56:30.941Z,20.08
2022-08-26T10:58:09.199Z,20.05
2022-08-26T10:59:47.994Z,20.00
2022-08-26T11:01:22.692Z,19.97
2022-08-26T11:02:47.063Z,19.94
2022-08-26T11:04:13.034Z,19.90
2022-08-26T11:05:21.237Z,19.87
2022-08-26T11:06:30.419Z,19.86
2022-08-26T11:07:47.714Z,19.84
2022-08-26T11:08:58.004Z,19.80
2022-08-26T11:10:21.741Z,19.77
2022-08-26T11:11:49.392Z,19.75
2022-08-26T11:13:04.836Z,19.71
2022-08-26T11:14:28.917Z,19.68
2022-08-26T11:15:42.864Z,19.64
2022-08-26T11:16:55.471Z,19.62
2022-08-26T11:18:04.034Z,19.61
2022-08-26T11:19:11.915Z,19.60
2022-08-26T11:20:25.095Z,19.60
2022-08-26T11:21:51.669Z,19.59
2022-08-26T11:23:19.486Z,19.58
2022-08-26T11:25:01.576Z,19.58
2022-08-26T11:26:12.373Z,19.58
2022-08-26T11:27:28.818Z,19.56
2022-08-26T11:28:46.674Z,19.53
2022-08-26T11:30:07.164Z,19.49
2022-08-26T11:31:21.304Z,19.44
2022-08-26T11:32:49.418Z,19.41
2022-08-26T11:34:05.342Z,19.37
2022-08-26T11:35:13.027Z,19.34
2022-08-26T11:36:44.494Z,19.32
2022-08-26T11:38:04.302Z,19.29
2022-08-26T11:39:38.666Z,19.28
2022-08-26T11:40:47.846Z,19.25
2022-08-26T11:41:57.846Z,19.23
2022-08-26T11:43:36.497Z,19.23
2022-08-26T11:44:49.258Z,19.24
2022-08-26T11:46:06.922Z,19.20
2022-08-26T11:47:17.626Z,19.18
2022-08-26T11:48:33.145Z,19.16
2022-08-26T11:49:41.952Z,19.14
2022-08-26T11:51:02.583Z,19.14
2022-08-26T11:52:13.965Z,19.14
2022-08-26T11:53:21.504Z,19.13
2022-08-26T11:54:35.815Z,19.12
2022-08-26T11:55:47.365Z,19.10
2022-08-26T11:56:55.656Z,19.11
2022-08-26T11:58:04.794Z,19.11
2022-08-26T11:59:16.767Z,19.11
2022-08-26T12:00:37.984Z,19.11
2022-08-26T12:01:51.860Z,19.12
2022-08-26T12:03:00.999Z,19.12
2022-08-26T12:04:10.096Z,19.11
2022-08-26T12:05:19.502Z,19.10
2022-08-26T12:06:28.649Z,19.08
2022-08-26T12:07:38.105Z,19.07
2022-08-26T12:08:51.136Z,19.05
2022-08-26T12:10:03.297Z,19.03
2022-08-26T12:11:18.186Z,19.02
2022-08-26T12:12:35.051Z,19.00
2022-08-26T12:13:46.407Z,18.99
2022-08-26T12:15:21.610Z,18.98
2022-08-26T12:16:38.860Z,18.98
2022-08-26T12:17:49.440Z,18.99
2022-08-26T12:19:01.529Z,19.01
2022-08-26T12:20:18.757Z,19.00
2022-08-26T12:21:36.221Z,19.00
2022-08-26T12:22:48.015Z,19.01
2022-08-26T12:23:57.447Z,19.01
2022-08-26T12:25:07.199Z,19.01
2022-08-26T12:26:31.498Z,18.99
2022-08-26T12:27:46.210Z,18.99
2022-08-26T12:29:01.049Z,18.98
2022-08-26T12:30:17.934Z,18.95
2022-08-26T12:31:30.525Z,18.93
2022-08-26T12:32:57.166Z,18.92
2022-08-26T12:34:07.429Z,18.92
2022-08-26T12:35:25.611Z,18.91
2022-08-26T12:36:34.190Z,18.88
2022-08-26T12:37:52.489Z,18.88
2022-08-26T12:39:08.023Z,18.87
2022-08-26T12:40:35.624Z,18.85
2022-08-26T12:41:51.777Z,18.85
2022-08-26T12:43:01.546Z,18.83
2022-08-26T12:44:08.955Z,18.82
2022-08-26T12:45:16.620Z,18.81
2022-08-26T12:46:30.161Z,18.79
2022-08-26T12:47:45.386Z,18.78
2022-08-26T12:48:53.407Z,18.78
2022-08-26T12:50:23.888Z,18.78
2022-08-26T12:51:33.528Z,18.78
2022-08-26T12:53:08.459Z,18.78
2022-08-26T12:54:17.688Z,18.76
2022-08-26T12:55:30.004Z,18.76
2022-08-26T12:56:41.392Z,18.75
2022-08-26T12:57:49.841Z,18.75
2022-08-26T12:59:07.954Z,18.74
2022-08-26T13:00:36.650Z,18.73
2022-08-26T13:01:46.380Z,18.72
2022-08-26T13:02:54.891Z,18.72
2022-08-26T13:04:02.692Z,18.73
2022-08-26T13:05:10.700Z,18.73
2022-08-26T13:06:24.080Z,18.73
2022-08-26T13:07:32.178Z,18.74
2022-08-26T13:08:47.501Z,18.74
2022-08-26T13:09:57.173Z,18.75
2022-08-26T13:11:19.758Z,18.76
2022-08-26T13:12:35.110Z,18.78
2022-08-26T13:13:43.437Z,18.79
2022-08-26T13:14:52.561Z,18.80
2022-08-26T13:16:01.448Z,18.80
2022-08-26T13:17:09.392Z,18.82
2022-08-26T13:18:17.001Z,18.82
2022-08-26T13:19:27.170Z,18.83
2022-08-26T13:20:35.611Z,18.85
2022-08-26T13:21:55.918Z,18.87
2022-08-26T13:23:05.581Z,18.90
2022-08-26T13:24:13.692Z,18.93
2022-08-26T13:25:21.238Z,18.97
2022-08-26T13:26:29.054Z,19.00
2022-08-26T13:27:38.451Z,19.02
2022-08-26T13:28:47.707Z,19.04
2022-08-26T13:30:09.761Z,19.06
2022-08-26T13:31:21.716Z,19.07
2022-08-26T13:32:36.243Z,19.09
2022-08-26T13:33:50.156Z,19.10
2022-08-26T13:34:58.068Z,19.11
2022-08-26T13:36:06.390Z,19.14
2022-08-26T13:37:13.458Z,19.16
2022-08-26T13:38:33.635Z,19.19
2022-08-26T13:39:44.114Z,19.25
2022-08-26T13:40:52.250Z,19.34
2022-08-26T13:42:00.398Z,19.45
2022-08-26T13:43:08.515Z,19.59
2022-08-26T13:44:16.741Z,19.68
2022-08-26T13:45:24.891Z,19.71
2022-08-26T13:46:34.119Z,19.75
2022-08-26T13:47:43.441Z,19.84
2022-08-26T13:48:51.543Z,19.99
2022-08-26T13:50:00.110Z,20.15
2022-08-26T13:51:08.930Z,20.31
2022-08-26T13:52:16.420Z,20.46
2022-08-26T13:53:24.918Z,20.66
2022-08-26T13:54:33.371Z,20.86
2022-08-26T13:55:42.484Z,21.08
2022-08-26T13:56:50.289Z,21.28
2022-08-26T13:57:58.126Z,21.42
2022-08-26T13:59:05.810Z,21.58
2022-08-26T14:00:14.409Z,21.78
2022-08-26T14:01:21.699Z,21.97
2022-08-26T14:02:29.838Z,22.11
2022-08-26T14:03:38.345Z,22.15
2022-08-26T14:04:46.439Z,22.16
2022-08-26T14:05:57.212Z,22.15
2022-08-26T14:07:08.241Z,22.08
2022-08-26T14:08:18.319Z,22.02
2022-08-26T14:09:27.301Z,22.01
2022-08-26T14:10:36.280Z,22.10
2022-08-26T14:11:54.241Z,22.32
2022-08-26T14:13:03.741Z,22.63
2022-08-26T14:14:12.146Z,22.90
2022-08-26T14:15:20.182Z,23.11
2022-08-26T14:16:29.451Z,23.30
2022-08-26T14:17:38.010Z,23.51
2022-08-26T14:18:50.571Z,23.66
2022-08-26T14:19:59.749Z,23.78
2022-08-26T14:21:07.667Z,23.85
2022-08-26T14:22:17.775Z,23.95
2022-08-26T14:23:26.993Z,24.08
2022-08-26T14:24:35.025Z,24.20
2022-08-26T14:25:43.249Z,24.30
2022-08-26T14:26:52.695Z,24.41
2022-08-26T14:28:00.504Z,24.58
2022-08-26T14:29:12.383Z,24.66
2022-08-26T14:30:23.171Z,24.74
2022-08-26T14:31:33.467Z,24.85
2022-08-26T14:32:47.264Z,25.05
2022-08-26T14:33:55.211Z,25.25
2022-08-26T14:35:03.730Z,25.50
2022-08-26T14:36:30.418Z,25.77
2022-08-26T14:37:39.209Z,26.10
2022-08-26T14:38:48.185Z,26.34
2022-08-26T14:39:56.853Z,26.50
2022-08-26T14:41:08.392Z,26.60
2022-08-26T14:42:17.931Z,26.58
2022-08-26T14:43:25.649Z,26.61
2022-08-26T14:44:34.238Z,26.76
2022-08-26T14:45:46.560Z,26.82
2022-08-26T14:46:54.217Z,26.86
2022-08-26T14:48:02.177Z,26.90
2022-08-26T14:49:10.816Z,26.88
2022-08-26T14:50:20.456Z,26.87
2022-08-26T14:51:28.628Z,26.91
2022-08-26T14:52:56.898Z,27.03
2022-08-26T14:54:13.940Z,27.05
2022-08-26T14:55:21.288Z,26.91
2022-08-26T14:56:29.429Z,26.81
2022-08-26T14:57:37.839Z,26.75
2022-08-26T14:58:46.559Z,26.76
2022-08-26T14:59:54.057Z,26.77
2022-08-26T15:01:04.134Z,26.81
2022-08-26T15:02:32.436Z,26.86
2022-08-26T15:03:43.064Z,27.01
2022-08-26T15:04:51.803Z,27.05
2022-08-26T15:06:00.551Z,26.99
2022-08-26T15:07:08.750Z,27.03
2022-08-26T15:08:22.380Z,27.07
2022-08-26T15:09:31.367Z,27.05
2022-08-26T15:10:39.818Z,27.18
2022-08-26T15:11:48.144Z,27.43
2022-08-26T15:12:56.419Z,27.62
2022-08-26T15:14:05.244Z,27.71
2022-08-26T15:15:17.975Z,27.75
2022-08-26T15:16:26.119Z,27.91
2022-08-26T15:17:35.951Z,28.09
2022-08-26T15:18:44.118Z,28.18
2022-08-26T15:19:53.320Z,28.21
2022-08-26T15:21:01.285Z,28.27
2022-08-26T15:22:08.895Z,28.42
2022-08-26T15:23:16.066Z,28.53
2022-08-26T15:24:30.440Z,28.59
2022-08-26T15:25:38.639Z,28.81
2022-08-26T15:26:47.090Z,28.95
2022-08-26T15:27:54.501Z,29.10
2022-08-26T15:29:05.017Z,29.32
2022-08-26T15:30:13.503Z,29.45